METAR Data
IDs: Format: Raw Decoded Include TAF

Data at: 1332 UTC 07 Jul 2020

KCQX 071319Z AUTO 15004KT 10SM BKN006 OVC075 16/13 A3022 RMK AO2 T01560128
KCQX 071252Z AUTO 15005KT 10SM OVC005 16/13 A3022 RMK AO2 SLP233 T01560128
KCQX 071219Z AUTO 10004KT 10SM OVC005 14/13 A3022 RMK AO2 T01440128
KCQX 071152Z AUTO 12005KT 10SM OVC004 14/13 A3022 RMK AO2 SLP233 T01440128 10156 20133 51007
KCQX 071141Z AUTO 11007KT 10SM OVC005 14/13 A3021 RMK AO2 T01440128
KCQX 071052Z AUTO 11004KT 10SM OVC003 14/13 A3021 RMK AO2 SLP231 T01390128
KCQX 070952Z AUTO 00000KT 8SM OVC003 14/13 A3021 RMK AO2 SLP232 T01390128
KCQX 070852Z AUTO 17003KT 8SM OVC003 14/13 A3020 RMK AO2 SLP226 T01390128 53005
KCQX 070752Z AUTO 17003KT 10SM OVC002 14/13 A3018 RMK AO2 SLP220 T01440133
KCQX 070741Z AUTO 14003KT 8SM OVC002 14/13 A3018 RMK AO2 T01390133
KCQX 070728Z AUTO 14005KT 2SM BR OVC002 14/13 A3017 RMK AO2 T01440133
KCQX 070717Z AUTO 17004KT 1 3/4SM BR OVC002 14/13 A3018 RMK AO2 T01440133
KCQX 070652Z AUTO VRB05KT 7SM OVC002 15/14 A3017 RMK AO2 SLP218 T01500139
KCQX 070552Z AUTO VRB04KT 10SM OVC004 16/14 A3018 RMK AO2 CIG 003V007 SLP221 T01560139 10183 20156 53003
KCQX 070542Z AUTO 16004KT 10SM OVC004 16/14 A3018 RMK AO2 T01560144
KCQX 070452Z AUTO 13004KT 10SM BKN007 BKN090 16/14 A3018 RMK AO2 SLP220 T01560144 402280156
KCQX 070352Z AUTO 00000KT 10SM SCT008 BKN085 16/14 A3017 RMK AO2 SLP218 T01560144
KCQX 070334Z AUTO VRB03KT 10SM SCT008 BKN085 16/14 A3017 RMK AO2 T01610144
KCQX 070306Z AUTO 13004KT 10SM BKN010 16/14 A3017 RMK AO2 T01610144
KCQX 070252Z AUTO 00000KT 10SM FEW010 16/14 A3016 RMK AO2 SLP215 T01610144 53009
KCQX 070152Z AUTO 09004KT 10SM CLR 17/15 A3016 RMK AO2 SLP214 T01720150
KCQX 070052Z AUTO 07008KT 10SM CLR 18/14 A3014 RMK AO2 SLP206 T01780144
KCQX 062352Z AUTO 05006KT 10SM CLR 18/14 A3014 RMK AO2 SLP206 T01830144 10222 20183 51008
KCQX 062252Z AUTO 05006KT 10SM CLR 20/15 A3013 RMK AO2 SLP202 T02000150
KCQX 062152Z AUTO 04008KT 10SM CLR 21/15 A3013 RMK AO2 SLP204 T02060150
KCQX 062052Z AUTO 06010G15KT 10SM FEW015 22/16 A3011 RMK AO2 SLP197 T02170156 51004
KCQX 062039Z AUTO 05008G15KT 010V070 10SM SCT015 21/16 A3011 RMK AO2 T02110161
KCQX 061952Z AUTO 04012G17KT 10SM OVC017 21/16 A3011 RMK AO2 SLP197 T02110161
KCQX 061901Z AUTO 05009KT 10SM OVC015 22/17 A3012 RMK AO2 T02170167
KCQX 061852Z AUTO 04008KT 360V060 10SM OVC013 21/17 A3011 RMK AO2 SLP198 T02110167
KCQX 061828Z AUTO 04009G14KT 10SM BKN010 OVC013 21/17 A3010 RMK AO2 CIG 006V012 T02110172
KCQX 061812Z AUTO 03006KT 6SM HZ BKN008 BKN014 OVC019 20/17 A3010 RMK AO2 CIG 006V012 T02000172
KCQX 061804Z AUTO 04007G15KT 9SM FEW006 BKN014 OVC019 21/17 A3010 RMK AO2 T02060172
KCQX 061752Z AUTO 03006KT 10SM OVC019 22/18 A3010 RMK AO2 SLP193 T02220178 10228 20189 51010
KCQX 061652Z AUTO 03009G15KT 10SM BKN016 23/17 A3009 RMK AO2 SLP190 T02280172
KCQX 061617Z AUTO 03006G17KT 10SM SCT013 23/17 A3009 RMK AO2 T02280172
KCQX 061552Z AUTO 04007KT 10SM BKN015 22/18 A3008 RMK AO2 SLP187 T02220178
KCQX 061501Z AUTO VRB04KT 10SM BKN011 OVC014 22/18 A3007 RMK AO2 CIG 007V012 T02220178
KCQX 061452Z AUTO 04007KT 10SM OVC009 21/17 A3007 RMK AO2 CIG 006V013 SLP182 T02110172 51016
KCQX 061352Z AUTO 33004KT 10SM OVC007 20/18 A3005 RMK AO2 CIG 004V010 SLP177 T02000178
KCQX 061342Z AUTO VRB05KT 10SM OVC007 21/18 A3005 RMK AO2 CIG 003V010 T02060183
KCQX 061331Z AUTO VRB03KT 10SM OVC005 20/18 A3004 RMK AO2 CIG 003V008 T02000183
KCQX 061252Z AUTO 00000KT 3SM BR OVC002 19/18 A3004 RMK AO2 SLP172 T01890183
KCQX 061234Z AUTO 04003KT 1SM BR OVC002 18/18 A3004 RMK AO2 T01830178
KCQX 061224Z AUTO 04005KT 3/4SM BR OVC002 18/18 A3004 RMK AO2 T01830178
KCQX 061217Z AUTO 04006KT 1/4SM FG OVC002 18/17 A3004 RMK AO2 T01830172
KCQX 061206Z AUTO 06008KT 3/4SM BR OVC002 20/19 A3003 RMK AO2 T02000189
KCQX 061149Z AUTO 00000KT 3SM BR OVC002 21/20 A3002 RMK AO2 SLP166 70031 T02110200 10211 20183 51017
KCQX 061125Z AUTO 00000KT 1SM BR VV002 21/20 A3001 RMK AO2 T02060200
KCQX 061052Z AUTO 00000KT 3/4SM BR VV002 21/19 A3001 RMK AO2 SLP162 T02060194
KCQX 060952Z AUTO 00000KT 1/2SM FG VV002 20/19 A2999 RMK AO2 SLP156 T02000194
KCQX 060939Z AUTO 23003KT 1/2SM FG VV002 20/19 A2999 RMK AO2 T02000194
KCQX 060922Z AUTO VRB04KT 1 3/4SM BR OVC002 20/19 A2998 RMK AO2 T02000189
KCQX 060852Z AUTO 20004KT 6SM BR OVC003 19/19 A2997 RMK AO2 SLP149 T01940189 55006
KCQX 060834Z AUTO 22004KT 9SM BKN003 OVC009 19/19 A2997 RMK AO2 T01940189
KCQX 060825Z AUTO 22005KT 9SM SCT002 OVC009 19/19 A2997 RMK AO2 T01940189
KCQX 060814Z AUTO VRB04KT 6SM BR BKN002 OVC010 19/19 A2996 RMK AO2 T01940189
KCQX 060807Z AUTO 22005KT 2SM BR OVC002 19/19 A2996 RMK AO2 T01940189
KCQX 060752Z AUTO 22006KT 1/2SM FG VV002 19/18 A2996 RMK AO2 SLP147 T01940183
KCQX 060721Z AUTO VRB04KT 1/2SM FG VV002 19/18 A2996 RMK AO2 T01890178
KCQX 060711Z AUTO 19004KT 1 3/4SM BR BKN002 19/18 A2996 RMK AO2 LTG DSNT SE AND S T01890178
KCQX 060652Z AUTO 16003KT 5SM BR SCT003 19/18 A2997 RMK AO2 LTG DSNT S SLP151 T01890178
KCQX 060635Z AUTO 00000KT 6SM BR BKN003 19/18 A2998 RMK AO2 LTG DSNT SE AND S T01890183
KCQX 060618Z AUTO 00000KT 10SM VCTS FEW005 FEW070 19/18 A2998 RMK AO2 LTG DSNT SE-SW T01940183
KCQX 060611Z AUTO 11004KT 10SM FEW070 FEW080 19/18 A2998 RMK AO2 LTG DSNT E-SW T01940183
KCQX 060551Z AUTO 00000KT 10SM VCTS FEW042 BKN075 OVC110 19/18 A2999 RMK AO2 LTG DSNT ALQDS RAB0456E51 TSB0459E23 SLP155 P0031 60031 T01940183 10206 20167 50000
KCQX 060550Z AUTO 00000KT 10SM VCTS -RA FEW044 BKN075 OVC110 19/18 A2999 RMK AO2 LTG DSNT ALQDS RAB0456 TSB0459E23 P0031
KCQX 060543Z AUTO 00000KT 2SM -RA BR BKN046 BKN075 OVC090 19/18 A2998 RMK AO2 LTG DSNT E AND SE RAB0456 TSB0459E23 P0031 T01940183
KCQX 060536Z AUTO 21004KT 1SM VCTS +RA BR BKN044 OVC075 19/19 A2998 RMK AO2 LTG DSNT NE-S RAB0456 TSB0459E23 P0030 T01940189
KCQX 060529Z AUTO 23006KT 2SM VCTS RA BR FEW002 BKN044 OVC095 20/19 A2999 RMK AO2 LTG DSNT ALQDS RAB0456 TSB0459E23 P0022 T02000189
KCQX 060519Z AUTO 21005KT 2SM TSRA BR SCT002 OVC044 20/19 A3000 RMK AO2 LTG DSNT ALQDS RAB0456 TSB0459 P0016 T02000194
KCQX 060508Z AUTO VRB04KT 1SM +TSRA BR BKN002 OVC024 20/19 A3001 RMK AO2 LTG DSNT ALQDS RAB0456 TSB0459 P0011 T02000189
KCQX 060459Z AUTO 28008KT 2 1/2SM -TSRA BR OVC002 20/19 A3002 RMK AO2 LTG DSNT W-NE RAB56 TSB59 PRESRR P0001 T02000189
KCQX 060452Z AUTO 28008KT 230V290 3SM BR OVC002 20/18 A3000 RMK AO2 LTG DSNT W-NE PRESRR SLP161 T02000183 402060167
KCQX 060352Z AUTO VRB06KT 7SM OVC003 20/18 A2997 RMK AO2 SLP150 T02000183
KCQX 060252Z AUTO 22009KT 4SM BR OVC002 20/18 A2999 RMK AO2 SLP155 T02000183 53005
KCQX 060159Z AUTO 22009KT 4SM BR OVC004 19/18 A2998 RMK AO2 CIG 002V005 T01940183
KCQX 060152Z AUTO 22007G15KT 5SM BR OVC005 19/18 A2998 RMK AO2 CIG 002V006 SLP154 T01940183